sensor_id;sensor_type;location;lat;lon;timestamp;pressure;altitude;pressure_sealevel;temperature;humidity
79004;BME280;68369;51.050;17.018;2023-05-28T08:44:19;100664.83;;;25.35;25.13
79004;BME280;68369;51.050;17.018;2023-05-28T08:47:05;100668.55;;;25.30;25.09
79004;BME280;68369;51.050;17.018;2023-05-28T08:49:52;100661.90;;;25.30;24.77
79004;BME280;68369;51.050;17.018;2023-05-28T08:52:42;100669.89;;;25.25;24.82
79004;BME280;68369;51.050;17.018;2023-05-28T08:55:35;100660.56;;;25.16;23.83
79004;BME280;68369;51.050;17.018;2023-05-28T08:58:21;100662.02;;;25.05;23.81
79004;BME280;68369;51.050;17.018;2023-05-28T09:46:49;100639.40;;;25.09;23.83
79004;BME280;68369;51.050;17.018;2023-05-28T09:49:35;100635.95;;;25.15;24.09
79004;BME280;68369;51.050;17.018;2023-05-28T10:22:18;100618.34;;;26.52;22.67
79004;BME280;68369;51.050;17.018;2023-05-28T10:25:07;100617.55;;;26.59;22.44
79004;BME280;68369;51.050;17.018;2023-05-28T10:27:59;100612.92;;;26.64;21.79
79004;BME280;68369;51.050;17.018;2023-05-28T10:31:07;100602.04;;;26.68;21.47
79004;BME280;68369;51.050;17.018;2023-05-28T10:33:53;100603.66;;;26.71;21.40
79004;BME280;68369;51.050;17.018;2023-05-28T10:36:52;100602.77;;;26.71;21.65
79004;BME280;68369;51.050;17.018;2023-05-28T10:39:49;100600.91;;;26.76;21.86
79004;BME280;68369;51.050;17.018;2023-05-28T10:42:41;100602.98;;;26.81;21.19
79004;BME280;68369;51.050;17.018;2023-05-28T10:45:41;100603.98;;;26.86;20.96
79004;BME280;68369;51.050;17.018;2023-05-28T10:48:33;100599.87;;;26.85;20.94
79004;BME280;68369;51.050;17.018;2023-05-28T10:51:45;100596.92;;;26.84;20.76
79004;BME280;68369;51.050;17.018;2023-05-28T10:57:21;100597.08;;;26.88;21.31
79004;BME280;68369;51.050;17.018;2023-05-28T11:00:07;100594.16;;;26.90;21.51
79004;BME280;68369;51.050;17.018;2023-05-28T11:02:58;100598.81;;;26.95;21.16
79004;BME280;68369;51.050;17.018;2023-05-28T11:05:44;100592.56;;;27.00;21.01
79004;BME280;68369;51.050;17.018;2023-05-28T11:08:30;100593.45;;;27.07;21.13
79004;BME280;68369;51.050;17.018;2023-05-28T11:50:17;100561.63;;;27.56;20.35
79004;BME280;68369;51.050;17.018;2023-05-28T11:53:05;100560.07;;;27.62;19.96
79004;BME280;68369;51.050;17.018;2023-05-28T11:55:51;100553.19;;;27.69;19.69
79004;BME280;68369;51.050;17.018;2023-05-28T12:21:47;100537.15;;;27.89;19.91
79004;BME280;68369;51.050;17.018;2023-05-28T13:19:26;100493.64;;;27.97;18.58
79004;BME280;68369;51.050;17.018;2023-05-28T13:28:41;100486.05;;;27.94;18.30
79004;BME280;68369;51.050;17.018;2023-05-28T13:31:28;100483.13;;;27.91;17.49
79004;BME280;68369;51.050;17.018;2023-05-28T13:34:16;100482.57;;;27.88;17.56
79004;BME280;68369;51.050;17.018;2023-05-28T13:37:02;100468.52;;;27.75;17.80
79004;BME280;68369;51.050;17.018;2023-05-28T13:39:52;100478.38;;;27.78;17.82
79004;BME280;68369;51.050;17.018;2023-05-28T13:42:41;100477.98;;;27.76;17.81
79004;BME280;68369;51.050;17.018;2023-05-28T13:45:30;100474.20;;;27.74;18.11
79004;BME280;68369;51.050;17.018;2023-05-28T13:48:16;100463.55;;;27.73;18.57
79004;BME280;68369;51.050;17.018;2023-05-28T13:51:08;100459.52;;;27.75;18.67
79004;BME280;68369;51.050;17.018;2023-05-28T13:53:53;100458.17;;;27.77;17.97
79004;BME280;68369;51.050;17.018;2023-05-28T14:19:52;100447.38;;;27.41;18.95
79004;BME280;68369;51.050;17.018;2023-05-28T14:22:39;100439.66;;;27.36;18.19
79004;BME280;68369;51.050;17.018;2023-05-28T14:25:26;100427.45;;;27.26;18.61
79004;BME280;68369;51.050;17.018;2023-05-28T14:28:12;100435.18;;;27.29;18.62
79004;BME280;68369;51.050;17.018;2023-05-28T14:30:59;100432.25;;;27.20;18.44
79004;BME280;68369;51.050;17.018;2023-05-28T14:33:45;100429.81;;;27.11;18.45
79004;BME280;68369;51.050;17.018;2023-05-28T15:39:32;100408.13;;;36.11;11.90
79004;BME280;68369;51.050;17.018;2023-05-28T16:19:30;100380.02;;;27.54;18.64
79004;BME280;68369;51.050;17.018;2023-05-28T16:22:10;100381.05;;;27.10;19.35
79004;BME280;68369;51.050;17.018;2023-05-28T16:24:59;100379.80;;;26.67;19.48
79004;BME280;68369;51.050;17.018;2023-05-28T16:54:40;100374.27;;;23.60;23.64
79004;BME280;68369;51.050;17.018;2023-05-28T16:57:32;100376.80;;;23.41;24.34
79004;BME280;68369;51.050;17.018;2023-05-28T17:00:19;100357.45;;;23.14;25.01
79004;BME280;68369;51.050;17.018;2023-05-28T17:03:09;100356.77;;;22.98;24.60
79004;BME280;68369;51.050;17.018;2023-05-28T17:05:55;100377.79;;;22.91;25.32
79004;BME280;68369;51.050;17.018;2023-05-28T17:08:41;100372.38;;;22.74;25.52
79004;BME280;68369;51.050;17.018;2023-05-28T17:11:26;100379.09;;;22.59;25.44
79004;BME280;68369;51.050;17.018;2023-05-28T17:14:12;100373.77;;;22.45;25.78
79004;BME280;68369;51.050;17.018;2023-05-28T17:17:01;100375.27;;;22.31;26.47
79004;BME280;68369;51.050;17.018;2023-05-28T17:19:46;100376.75;;;22.18;26.68
79004;BME280;68369;51.050;17.018;2023-05-28T17:22:31;100379.59;;;22.06;27.63
79004;BME280;68369;51.050;17.018;2023-05-28T17:25:16;100374.48;;;21.93;27.44
79004;BME280;68369;51.050;17.018;2023-05-28T17:28:02;100375.90;;;21.82;27.81
79004;BME280;68369;51.050;17.018;2023-05-28T17:30:47;100375.13;;;21.70;28.37
79004;BME280;68369;51.050;17.018;2023-05-28T17:33:32;100375.38;;;21.59;28.88
79004;BME280;68369;51.050;17.018;2023-05-28T17:36:18;100370.87;;;21.45;29.02
79004;BME280;68369;51.050;17.018;2023-05-28T17:39:03;100366.83;;;21.34;29.23
79004;BME280;68369;51.050;17.018;2023-05-28T17:41:49;100367.35;;;21.24;29.73
79004;BME280;68369;51.050;17.018;2023-05-28T17:44:34;100367.45;;;21.12;29.39
79004;BME280;68369;51.050;17.018;2023-05-28T17:47:22;100365.96;;;21.01;29.41
79004;BME280;68369;51.050;17.018;2023-05-28T17:50:08;100365.84;;;20.90;29.69
79004;BME280;68369;51.050;17.018;2023-05-28T17:52:55;100367.92;;;20.78;29.67
79004;BME280;68369;51.050;17.018;2023-05-28T17:55:41;100363.50;;;20.67;29.97
79004;BME280;68369;51.050;17.018;2023-05-28T17:58:27;100364.11;;;20.55;30.06
79004;BME280;68369;51.050;17.018;2023-05-28T18:01:13;100368.69;;;20.45;30.44
79004;BME280;68369;51.050;17.018;2023-05-28T18:03:58;100368.34;;;20.34;30.62
79004;BME280;68369;51.050;17.018;2023-05-28T18:06:48;100364.85;;;20.22;30.90
79004;BME280;68369;51.050;17.018;2023-05-28T18:09:37;100365.27;;;20.10;31.28
79004;BME280;68369;51.050;17.018;2023-05-28T18:12:22;100365.05;;;20.00;31.29
79004;BME280;68369;51.050;17.018;2023-05-28T18:15:08;100366.71;;;19.86;31.97
79004;BME280;68369;51.050;17.018;2023-05-28T18:17:56;100368.92;;;19.71;32.71
79004;BME280;68369;51.050;17.018;2023-05-28T18:30:27;100374.38;;;19.06;33.65
79004;BME280;68369;51.050;17.018;2023-05-28T18:35:55;100372.91;;;18.78;34.74
79004;BME280;68369;51.050;17.018;2023-05-28T19:08:59;100394.16;;;17.23;40.53
79004;BME280;68369;51.050;17.018;2023-05-28T19:48:58;100415.48;;;15.66;46.65
79004;BME280;68369;51.050;17.018;2023-05-28T19:58:39;100426.92;;;15.32;48.42
79004;BME280;68369;51.050;17.018;2023-05-28T20:17:19;100433.70;;;14.74;50.34
79004;BME280;68369;51.050;17.018;2023-05-28T20:20:06;100436.18;;;14.64;50.98
79004;BME280;68369;51.050;17.018;2023-05-28T20:47:29;100442.56;;;13.90;53.22
79004;BME280;68369;51.050;17.018;2023-05-28T20:56:50;100446.20;;;13.65;54.89
79004;BME280;68369;51.050;17.018;2023-05-28T22:08:29;100458.54;;;12.45;56.70
79004;BME280;68369;51.050;17.018;2023-05-28T22:50:24;100445.80;;;12.06;58.61
79004;BME280;68369;51.050;17.018;2023-05-28T23:05:41;100448.53;;;11.80;59.48
79004;BME280;68369;51.050;17.018;2023-05-28T23:08:26;100448.88;;;11.76;59.80
79004;BME280;68369;51.050;17.018;2023-05-28T23:30:39;100452.21;;;11.68;60.42
79004;BME280;68369;51.050;17.018;2023-05-28T23:36:19;100448.15;;;11.57;60.49
79004;BME280;68369;51.050;17.018;2023-05-28T23:39:06;100448.70;;;11.52;60.84
79004;BME280;68369;51.050;17.018;2023-05-28T23:51:14;100443.32;;;11.35;61.04
79004;BME280;68369;51.050;17.018;2023-05-28T23:54:00;100443.19;;;11.30;61.12
